sensor_id;sensor_type;location;lat;lon;timestamp;pressure;altitude;pressure_sealevel;temperature;humidity
64908;BME280;51412;52.236;5.188;2022-08-18T00:01:40;101301.78;;;20.97;89.51
64908;BME280;51412;52.236;5.188;2022-08-18T00:04:09;101311.44;;;20.98;89.69
64908;BME280;51412;52.236;5.188;2022-08-18T00:06:36;101310.34;;;20.95;90.19
64908;BME280;51412;52.236;5.188;2022-08-18T00:09:05;101311.84;;;20.96;89.88
64908;BME280;51412;52.236;5.188;2022-08-18T00:11:34;101305.69;;;20.96;90.10
64908;BME280;51412;52.236;5.188;2022-08-18T00:14:01;101310.69;;;20.97;89.83
64908;BME280;51412;52.236;5.188;2022-08-18T00:16:28;101305.59;;;20.99;89.86
64908;BME280;51412;52.236;5.188;2022-08-18T00:18:54;101298.00;;;20.94;89.74
64908;BME280;51412;52.236;5.188;2022-08-18T00:21:22;101298.34;;;20.96;89.70
64908;BME280;51412;52.236;5.188;2022-08-18T00:23:49;101298.66;;;20.98;89.67
64908;BME280;51412;52.236;5.188;2022-08-18T00:26:15;101291.75;;;20.97;88.97
64908;BME280;51412;52.236;5.188;2022-08-18T00:28:42;101288.22;;;21.00;88.94
64908;BME280;51412;52.236;5.188;2022-08-18T00:31:08;101287.34;;;21.03;89.15
64908;BME280;51412;52.236;5.188;2022-08-18T00:33:35;101284.91;;;21.09;88.62
64908;BME280;51412;52.236;5.188;2022-08-18T00:36:01;101286.00;;;21.12;88.13
64908;BME280;51412;52.236;5.188;2022-08-18T00:38:29;101288.25;;;21.13;87.94
64908;BME280;51412;52.236;5.188;2022-08-18T00:40:56;101297.56;;;21.12;87.99
64908;BME280;51412;52.236;5.188;2022-08-18T00:43:28;101293.00;;;21.09;87.70
64908;BME280;51412;52.236;5.188;2022-08-18T00:45:57;101300.78;;;21.07;87.63
64908;BME280;51412;52.236;5.188;2022-08-18T00:48:23;101301.66;;;21.04;87.70
64908;BME280;51412;52.236;5.188;2022-08-18T00:50:53;101297.84;;;21.01;87.70
64908;BME280;51412;52.236;5.188;2022-08-18T00:53:24;101298.66;;;20.98;88.08
64908;BME280;51412;52.236;5.188;2022-08-18T00:55:56;101289.47;;;20.96;88.10
64908;BME280;51412;52.236;5.188;2022-08-18T00:58:28;101290.66;;;20.95;87.85
64908;BME280;51412;52.236;5.188;2022-08-18T01:00:59;101291.94;;;20.90;87.74
64908;BME280;51412;52.236;5.188;2022-08-18T01:03:29;101287.38;;;20.87;87.52
64908;BME280;51412;52.236;5.188;2022-08-18T01:06:01;101293.28;;;20.82;87.50
64908;BME280;51412;52.236;5.188;2022-08-18T01:08:29;101304.09;;;20.82;87.47
64908;BME280;51412;52.236;5.188;2022-08-18T01:10:58;101300.72;;;20.78;87.29
64908;BME280;51412;52.236;5.188;2022-08-18T01:13:29;101309.66;;;20.75;87.39
64908;BME280;51412;52.236;5.188;2022-08-18T01:15:57;101306.97;;;20.75;87.43
64908;BME280;51412;52.236;5.188;2022-08-18T01:18:23;101304.94;;;20.79;87.24
64908;BME280;51412;52.236;5.188;2022-08-18T01:21:11;101300.38;;;20.76;87.04
64908;BME280;51412;52.236;5.188;2022-08-18T01:24:04;101306.09;;;20.78;87.21
64908;BME280;51412;52.236;5.188;2022-08-18T01:26:34;101306.19;;;20.74;86.88
64908;BME280;51412;52.236;5.188;2022-08-18T01:29:03;101310.84;;;20.74;86.66
64908;BME280;51412;52.236;5.188;2022-08-18T01:31:37;101310.84;;;20.74;86.77
64908;BME280;51412;52.236;5.188;2022-08-18T01:34:04;101313.13;;;20.75;87.08
64908;BME280;51412;52.236;5.188;2022-08-18T01:36:33;101314.56;;;20.80;87.45
64908;BME280;51412;52.236;5.188;2022-08-18T01:39:04;101311.44;;;20.81;87.63
64908;BME280;51412;52.236;5.188;2022-08-18T01:41:30;101309.47;;;20.82;87.17
64908;BME280;51412;52.236;5.188;2022-08-18T01:43:58;101309.16;;;20.80;87.23
64908;BME280;51412;52.236;5.188;2022-08-18T01:46:25;101316.16;;;20.77;87.11
64908;BME280;51412;52.236;5.188;2022-08-18T01:48:52;101314.72;;;20.73;87.34
64908;BME280;51412;52.236;5.188;2022-08-18T01:51:18;101324.84;;;20.68;87.18
64908;BME280;51412;52.236;5.188;2022-08-18T01:53:46;101317.19;;;20.63;87.48
64908;BME280;51412;52.236;5.188;2022-08-18T01:56:14;101310.31;;;20.62;87.47
64908;BME280;51412;52.236;5.188;2022-08-18T01:58:42;101309.94;;;20.60;87.74
64908;BME280;51412;52.236;5.188;2022-08-18T02:01:10;101306.56;;;20.56;87.85
64908;BME280;51412;52.236;5.188;2022-08-18T02:03:40;101303.19;;;20.52;87.61
64908;BME280;51412;52.236;5.188;2022-08-18T02:06:11;101300.56;;;20.48;87.60
64908;BME280;51412;52.236;5.188;2022-08-18T02:08:38;101301.00;;;20.47;87.46
64908;BME280;51412;52.236;5.188;2022-08-18T02:11:05;101309.19;;;20.43;87.13
64908;BME280;51412;52.236;5.188;2022-08-18T02:13:33;101313.91;;;20.39;87.40
64908;BME280;51412;52.236;5.188;2022-08-18T02:16:00;101313.97;;;20.35;87.74
64908;BME280;51412;52.236;5.188;2022-08-18T02:18:30;101318.25;;;20.33;88.07
64908;BME280;51412;52.236;5.188;2022-08-18T02:21:05;101320.28;;;20.29;88.36
64908;BME280;51412;52.236;5.188;2022-08-18T02:23:33;101331.81;;;20.29;88.74
64908;BME280;51412;52.236;5.188;2022-08-18T02:26:03;101333.34;;;20.30;88.82
64908;BME280;51412;52.236;5.188;2022-08-18T02:28:30;101339.09;;;20.32;88.89
64908;BME280;51412;52.236;5.188;2022-08-18T02:31:02;101335.63;;;20.32;89.12
64908;BME280;51412;52.236;5.188;2022-08-18T02:33:29;101332.19;;;20.31;89.04
64908;BME280;51412;52.236;5.188;2022-08-18T02:35:55;101325.63;;;20.32;89.19
64908;BME280;51412;52.236;5.188;2022-08-18T02:38:22;101321.03;;;20.29;89.29
64908;BME280;51412;52.236;5.188;2022-08-18T02:40:53;101327.94;;;20.30;89.35
64908;BME280;51412;52.236;5.188;2022-08-18T02:43:20;101315.63;;;20.29;89.34
64908;BME280;51412;52.236;5.188;2022-08-18T02:45:46;101316.41;;;20.30;89.51
64908;BME280;51412;52.236;5.188;2022-08-18T02:48:14;101327.19;;;20.30;89.46
64908;BME280;51412;52.236;5.188;2022-08-18T02:50:41;101325.69;;;20.29;89.56
64908;BME280;51412;52.236;5.188;2022-08-18T02:53:11;101338.69;;;20.34;89.44
64908;BME280;51412;52.236;5.188;2022-08-18T02:55:42;101334.81;;;20.35;89.72
64908;BME280;51412;52.236;5.188;2022-08-18T02:58:08;101340.22;;;20.35;89.78
64908;BME280;51412;52.236;5.188;2022-08-18T03:00:35;101334.03;;;20.34;89.89
64908;BME280;51412;52.236;5.188;2022-08-18T03:03:02;101345.19;;;20.36;89.89
64908;BME280;51412;52.236;5.188;2022-08-18T03:05:30;101330.22;;;20.32;89.76
64908;BME280;51412;52.236;5.188;2022-08-18T03:07:56;101343.66;;;20.35;89.83
64908;BME280;51412;52.236;5.188;2022-08-18T03:10:23;101346.69;;;20.38;90.03
64908;BME280;51412;52.236;5.188;2022-08-18T03:12:50;101348.22;;;20.39;89.78
64908;BME280;51412;52.236;5.188;2022-08-18T03:15:17;101344.34;;;20.40;89.89
64908;BME280;51412;52.236;5.188;2022-08-18T03:17:43;101347.03;;;20.40;89.86
64908;BME280;51412;52.236;5.188;2022-08-18T03:20:10;101347.03;;;20.40;89.60
64908;BME280;51412;52.236;5.188;2022-08-18T03:22:39;101347.03;;;20.40;89.62
64908;BME280;51412;52.236;5.188;2022-08-18T03:25:07;101353.97;;;20.41;89.52
64908;BME280;51412;52.236;5.188;2022-08-18T03:27:33;101344.78;;;20.38;89.25
64908;BME280;51412;52.236;5.188;2022-08-18T03:30:00;101342.81;;;20.39;89.31
64908;BME280;51412;52.236;5.188;2022-08-18T03:32:26;101342.41;;;20.40;89.25
64908;BME280;51412;52.236;5.188;2022-08-18T03:34:53;101338.53;;;20.41;89.44
64908;BME280;51412;52.236;5.188;2022-08-18T03:37:19;101344.66;;;20.42;89.27
64908;BME280;51412;52.236;5.188;2022-08-18T03:39:47;101339.28;;;20.42;89.28
64908;BME280;51412;52.236;5.188;2022-08-18T03:42:16;101346.97;;;20.43;89.26
64908;BME280;51412;52.236;5.188;2022-08-18T03:44:42;101348.91;;;20.43;89.16
64908;BME280;51412;52.236;5.188;2022-08-18T03:47:09;101353.13;;;20.44;89.31
64908;BME280;51412;52.236;5.188;2022-08-18T03:49:36;101356.56;;;20.44;89.18
64908;BME280;51412;52.236;5.188;2022-08-18T03:52:06;101357.00;;;20.43;89.48
64908;BME280;51412;52.236;5.188;2022-08-18T03:54:32;101359.28;;;20.44;89.44
64908;BME280;51412;52.236;5.188;2022-08-18T03:57:01;101348.56;;;20.41;89.44
64908;BME280;51412;52.236;5.188;2022-08-18T03:59:27;101363.19;;;20.43;89.59
64908;BME280;51412;52.236;5.188;2022-08-18T04:01:56;101345.88;;;20.41;89.52
64908;BME280;51412;52.236;5.188;2022-08-18T04:04:27;101359.38;;;20.41;89.53
64908;BME280;51412;52.236;5.188;2022-08-18T04:06:56;101350.91;;;20.39;89.77
64908;BME280;51412;52.236;5.188;2022-08-18T04:09:24;101356.69;;;20.41;89.77
64908;BME280;51412;52.236;5.188;2022-08-18T04:11:51;101360.88;;;20.42;90.12
64908;BME280;51412;52.236;5.188;2022-08-18T04:14:21;101358.16;;;20.42;90.05
64908;BME280;51412;52.236;5.188;2022-08-18T04:16:49;101353.88;;;20.44;90.26
64908;BME280;51412;52.236;5.188;2022-08-18T04:19:16;101353.88;;;20.44;90.24
64908;BME280;51412;52.236;5.188;2022-08-18T04:21:43;101350.44;;;20.44;90.05
64908;BME280;51412;52.236;5.188;2022-08-18T04:24:11;101347.72;;;20.44;89.91
64908;BME280;51412;52.236;5.188;2022-08-18T04:26:40;101346.19;;;20.43;89.42
64908;BME280;51412;52.236;5.188;2022-08-18T04:29:09;101349.31;;;20.41;89.65
64908;BME280;51412;52.236;5.188;2022-08-18T04:31:37;101347.38;;;20.42;89.74
64908;BME280;51412;52.236;5.188;2022-08-18T04:34:04;101350.06;;;20.42;89.46
64908;BME280;51412;52.236;5.188;2022-08-18T04:36:33;101347.78;;;20.40;89.81
64908;BME280;51412;52.236;5.188;2022-08-18T04:39:00;101355.91;;;20.40;89.75
64908;BME280;51412;52.236;5.188;2022-08-18T04:41:27;101350.91;;;20.39;89.78
64908;BME280;51412;52.236;5.188;2022-08-18T04:43:54;101346.63;;;20.41;89.46
64908;BME280;51412;52.236;5.188;2022-08-18T04:46:22;101344.78;;;20.38;89.47
64908;BME280;51412;52.236;5.188;2022-08-18T04:48:50;101347.88;;;20.36;89.25
64908;BME280;51412;52.236;5.188;2022-08-18T04:51:19;101342.81;;;20.39;89.03
64908;BME280;51412;52.236;5.188;2022-08-18T04:53:47;101347.88;;;20.36;88.91
64908;BME280;51412;52.236;5.188;2022-08-18T04:56:17;101349.81;;;20.36;89.19
64908;BME280;51412;52.236;5.188;2022-08-18T04:58:50;101355.63;;;20.34;89.17
64908;BME280;51412;52.236;5.188;2022-08-18T05:01:18;101358.34;;;20.34;89.03
64908;BME280;51412;52.236;5.188;2022-08-18T05:03:46;101352.59;;;20.32;88.86
64908;BME280;51412;52.236;5.188;2022-08-18T05:06:14;101361.88;;;20.31;88.95
64908;BME280;51412;52.236;5.188;2022-08-18T05:08:40;101361.09;;;20.31;89.26
64908;BME280;51412;52.236;5.188;2022-08-18T05:11:08;101370.38;;;20.30;89.18
64908;BME280;51412;52.236;5.188;2022-08-18T05:13:35;101361.19;;;20.27;89.04
64908;BME280;51412;52.236;5.188;2022-08-18T05:16:02;101366.16;;;20.29;89.12
64908;BME280;51412;52.236;5.188;2022-08-18T05:18:29;101363.47;;;20.29;89.07
64908;BME280;51412;52.236;5.188;2022-08-18T05:20:56;101368.88;;;20.29;89.08
64908;BME280;51412;52.236;5.188;2022-08-18T05:23:26;101368.13;;;20.28;89.27
64908;BME280;51412;52.236;5.188;2022-08-18T05:25:56;101361.19;;;20.27;89.15
64908;BME280;51412;52.236;5.188;2022-08-18T05:28:23;101370.81;;;20.28;89.19
64908;BME280;51412;52.236;5.188;2022-08-18T05:30:50;101361.19;;;20.27;89.39
64908;BME280;51412;52.236;5.188;2022-08-18T05:33:16;101361.50;;;20.29;89.39
64908;BME280;51412;52.236;5.188;2022-08-18T05:35:46;101358.06;;;20.29;89.79
64908;BME280;51412;52.236;5.188;2022-08-18T05:38:35;101361.19;;;20.27;90.31
64908;BME280;51412;52.236;5.188;2022-08-18T05:41:09;101364.22;;;20.29;89.97
64908;BME280;51412;52.236;5.188;2022-08-18T05:43:37;101356.06;;;20.33;89.67
64908;BME280;51412;52.236;5.188;2022-08-18T05:46:06;101360.28;;;20.34;89.70
64908;BME280;51412;52.236;5.188;2022-08-18T05:48:33;101362.13;;;20.37;89.75
64908;BME280;51412;52.236;5.188;2022-08-18T05:51:08;101360.19;;;20.38;89.96
64908;BME280;51412;52.236;5.188;2022-08-18T05:53:39;101365.88;;;20.43;89.93
64908;BME280;51412;52.236;5.188;2022-08-18T05:56:26;101365.78;;;20.47;90.11
64908;BME280;51412;52.236;5.188;2022-08-18T05:59:17;101364.97;;;20.50;90.06
64908;BME280;51412;52.236;5.188;2022-08-18T06:01:51;101359.06;;;20.55;90.29
64908;BME280;51412;52.236;5.188;2022-08-18T06:04:25;101357.38;;;20.61;90.19
64908;BME280;51412;52.236;5.188;2022-08-18T06:06:54;101363.44;;;20.69;90.07
64908;BME280;51412;52.236;5.188;2022-08-18T06:09:28;101356.75;;;20.74;90.15
64908;BME280;51412;52.236;5.188;2022-08-18T06:12:06;101356.25;;;20.79;90.55
64908;BME280;51412;52.236;5.188;2022-08-18T06:14:36;101352.88;;;20.91;90.36
64908;BME280;51412;52.236;5.188;2022-08-18T06:17:29;101358.78;;;21.02;89.72
64908;BME280;51412;52.236;5.188;2022-08-18T06:20:03;101352.38;;;21.13;89.44
64908;BME280;51412;52.236;5.188;2022-08-18T06:22:39;101358.63;;;21.26;88.91
64908;BME280;51412;52.236;5.188;2022-08-18T06:25:13;101357.25;;;21.34;88.01
64908;BME280;51412;52.236;5.188;2022-08-18T06:27:48;101360.78;;;21.48;87.43
64908;BME280;51412;52.236;5.188;2022-08-18T06:30:22;101350.59;;;21.56;87.04
64908;BME280;51412;52.236;5.188;2022-08-18T06:33:01;101348.78;;;21.65;87.06
64908;BME280;51412;52.236;5.188;2022-08-18T06:35:35;101356.97;;;21.62;87.21
64908;BME280;51412;52.236;5.188;2022-08-18T06:38:11;101361.50;;;21.81;86.51
64908;BME280;51412;52.236;5.188;2022-08-18T06:41:09;101356.31;;;21.87;86.03
64908;BME280;51412;52.236;5.188;2022-08-18T06:43:38;101366.50;;;21.96;85.62
64908;BME280;51412;52.236;5.188;2022-08-18T06:46:13;101364.81;;;22.02;85.07
64908;BME280;51412;52.236;5.188;2022-08-18T06:48:46;101367.66;;;22.11;84.94
64908;BME280;51412;52.236;5.188;2022-08-18T06:51:18;101369.72;;;22.20;84.39
64908;BME280;51412;52.236;5.188;2022-08-18T06:53:51;101370.38;;;22.24;84.02
64908;BME280;51412;52.236;5.188;2022-08-18T06:56:22;101367.13;;;22.29;83.93
64908;BME280;51412;52.236;5.188;2022-08-18T06:58:48;101382.44;;;22.36;83.32
64908;BME280;51412;52.236;5.188;2022-08-18T07:01:18;101384.53;;;22.45;82.40
64908;BME280;51412;52.236;5.188;2022-08-18T07:03:49;101376.50;;;22.54;82.11
64908;BME280;51412;52.236;5.188;2022-08-18T07:06:26;101379.31;;;22.63;81.28
64908;BME280;51412;52.236;5.188;2022-08-18T07:09:16;101384.53;;;22.70;81.11
64908;BME280;51412;52.236;5.188;2022-08-18T07:11:57;101372.03;;;22.73;79.86
64908;BME280;51412;52.236;5.188;2022-08-18T07:14:24;101382.34;;;22.78;79.89
64908;BME280;51412;52.236;5.188;2022-08-18T07:17:05;101385.72;;;22.82;78.48
64908;BME280;51412;52.236;5.188;2022-08-18T07:19:32;101378.47;;;22.92;79.09
64908;BME280;51412;52.236;5.188;2022-08-18T07:22:05;101391.03;;;22.99;77.50
64908;BME280;51412;52.236;5.188;2022-08-18T07:24:36;101387.19;;;23.09;77.59
64908;BME280;51412;52.236;5.188;2022-08-18T07:27:08;101382.56;;;23.10;76.87
64908;BME280;51412;52.236;5.188;2022-08-18T07:29:36;101394.72;;;23.18;76.56
64908;BME280;51412;52.236;5.188;2022-08-18T07:32:08;101395.56;;;23.28;75.89
64908;BME280;51412;52.236;5.188;2022-08-18T07:34:40;101394.13;;;23.36;75.30
64908;BME280;51412;52.236;5.188;2022-08-18T07:37:11;101392.50;;;23.38;74.71
64908;BME280;51412;52.236;5.188;2022-08-18T07:39:44;101396.47;;;23.47;73.80
64908;BME280;51412;52.236;5.188;2022-08-18T07:42:16;101402.09;;;23.52;73.96
64908;BME280;51412;52.236;5.188;2022-08-18T07:44:54;101411.66;;;23.57;73.16
64908;BME280;51412;52.236;5.188;2022-08-18T07:47:27;101414.84;;;23.65;72.79
64908;BME280;51412;52.236;5.188;2022-08-18T07:49:56;101411.31;;;23.55;73.15
64908;BME280;51412;52.236;5.188;2022-08-18T07:52:26;101416.94;;;23.61;72.71
64908;BME280;51412;52.236;5.188;2022-08-18T07:55:01;101417.72;;;23.61;72.74
64908;BME280;51412;52.236;5.188;2022-08-18T07:57:40;101416.72;;;23.68;72.49
64908;BME280;51412;52.236;5.188;2022-08-18T08:00:15;101418.97;;;23.69;72.61
64908;BME280;51412;52.236;5.188;2022-08-18T08:02:51;101420.81;;;23.73;71.88
64908;BME280;51412;52.236;5.188;2022-08-18T08:05:31;101425.69;;;23.78;71.99
64908;BME280;51412;52.236;5.188;2022-08-18T08:08:04;101425.97;;;23.80;72.08
64908;BME280;51412;52.236;5.188;2022-08-18T08:10:41;101429.78;;;23.82;72.14
64908;BME280;51412;52.236;5.188;2022-08-18T08:13:22;101428.13;;;23.85;72.05
64908;BME280;51412;52.236;5.188;2022-08-18T08:15:54;101420.09;;;23.94;71.72
64908;BME280;51412;52.236;5.188;2022-08-18T08:18:32;101421.47;;;24.21;71.54
64908;BME280;51412;52.236;5.188;2022-08-18T08:21:05;101421.00;;;24.45;70.49
64908;BME280;51412;52.236;5.188;2022-08-18T08:23:40;101415.22;;;24.65;71.00
64908;BME280;51412;52.236;5.188;2022-08-18T08:26:22;101413.94;;;24.88;70.01
64908;BME280;51412;52.236;5.188;2022-08-18T08:29:02;101420.34;;;25.03;69.32
64908;BME280;51412;52.236;5.188;2022-08-18T08:31:37;101424.84;;;24.97;68.47
64908;BME280;51412;52.236;5.188;2022-08-18T08:34:13;101429.97;;;24.86;68.09
64908;BME280;51412;52.236;5.188;2022-08-18T08:36:41;101425.41;;;24.74;68.55
64908;BME280;51412;52.236;5.188;2022-08-18T08:39:13;101422.34;;;24.71;68.22
64908;BME280;51412;52.236;5.188;2022-08-18T08:41:44;101410.69;;;24.62;68.89
64908;BME280;51412;52.236;5.188;2022-08-18T08:44:21;101414.69;;;24.48;68.30
64908;BME280;51412;52.236;5.188;2022-08-18T08:46:51;101418.44;;;24.41;68.73
64908;BME280;51412;52.236;5.188;2022-08-18T08:49:29;101410.06;;;24.35;69.15
64908;BME280;51412;52.236;5.188;2022-08-18T08:52:02;101399.53;;;24.37;69.38
64908;BME280;51412;52.236;5.188;2022-08-18T08:54:39;101409.34;;;24.66;69.38
64908;BME280;51412;52.236;5.188;2022-08-18T08:57:08;101409.94;;;25.02;68.20
64908;BME280;51412;52.236;5.188;2022-08-18T08:59:37;101408.75;;;25.31;66.71
64908;BME280;51412;52.236;5.188;2022-08-18T09:02:23;101414.41;;;25.55;64.86
64908;BME280;51412;52.236;5.188;2022-08-18T09:04:55;101416.22;;;25.58;64.46
64908;BME280;51412;52.236;5.188;2022-08-18T09:07:37;101414.41;;;25.46;64.71
64908;BME280;51412;52.236;5.188;2022-08-18T09:10:32;101416.19;;;25.30;65.12
64908;BME280;51412;52.236;5.188;2022-08-18T09:13:17;101412.06;;;25.16;64.88
64908;BME280;51412;52.236;5.188;2022-08-18T09:16:05;101422.63;;;25.05;66.18
64908;BME280;51412;52.236;5.188;2022-08-18T09:18:49;101423.34;;;24.96;66.38
64908;BME280;51412;52.236;5.188;2022-08-18T09:21:27;101429.34;;;24.82;65.83
64908;BME280;51412;52.236;5.188;2022-08-18T09:24:06;101436.88;;;24.78;66.57
64908;BME280;51412;52.236;5.188;2022-08-18T09:26:43;101438.22;;;24.73;66.70
64908;BME280;51412;52.236;5.188;2022-08-18T09:29:16;101434.41;;;24.70;67.49
64908;BME280;51412;52.236;5.188;2022-08-18T09:31:45;101426.72;;;24.69;67.20
64908;BME280;51412;52.236;5.188;2022-08-18T09:34:40;101435.25;;;24.89;68.15
64908;BME280;51412;52.236;5.188;2022-08-18T09:37:14;101424.84;;;24.97;66.83
64908;BME280;51412;52.236;5.188;2022-08-18T09:39:53;101430.41;;;24.94;66.76
64908;BME280;51412;52.236;5.188;2022-08-18T09:42:46;101436.03;;;24.90;67.12
64908;BME280;51412;52.236;5.188;2022-08-18T09:45:52;101442.94;;;24.82;67.22
64908;BME280;51412;52.236;5.188;2022-08-18T09:48:27;101435.50;;;24.73;66.16
64908;BME280;51412;52.236;5.188;2022-08-18T09:50:59;101441.38;;;24.71;66.62
64908;BME280;51412;52.236;5.188;2022-08-18T09:54:06;101440.00;;;24.67;67.26
64908;BME280;51412;52.236;5.188;2022-08-18T10:03:14;101422.84;;;24.57;67.40
64908;BME280;51412;52.236;5.188;2022-08-18T10:06:05;101423.19;;;24.59;67.14
64908;BME280;51412;52.236;5.188;2022-08-18T10:08:53;101423.00;;;24.85;68.78
64908;BME280;51412;52.236;5.188;2022-08-18T10:11:28;101407.69;;;25.19;67.17
64908;BME280;51412;52.236;5.188;2022-08-18T10:16:57;101400.59;;;25.96;64.71
64908;BME280;51412;52.236;5.188;2022-08-18T10:19:33;101404.50;;;26.32;63.62
64908;BME280;51412;52.236;5.188;2022-08-18T10:22:06;101399.13;;;26.47;61.72
64908;BME280;51412;52.236;5.188;2022-08-18T10:24:37;101412.63;;;26.41;60.71
64908;BME280;51412;52.236;5.188;2022-08-18T10:27:08;101406.91;;;26.30;62.14
64908;BME280;51412;52.236;5.188;2022-08-18T10:29:49;101403.47;;;26.20;62.13
64908;BME280;51412;52.236;5.188;2022-08-18T10:32:42;101405.84;;;26.27;62.90
64908;BME280;51412;52.236;5.188;2022-08-18T10:38:22;101412.50;;;26.26;61.19
64908;BME280;51412;52.236;5.188;2022-08-18T10:40:53;101422.84;;;26.13;61.16
64908;BME280;51412;52.236;5.188;2022-08-18T10:43:29;101413.75;;;25.97;60.20
64908;BME280;51412;52.236;5.188;2022-08-18T10:45:57;101410.75;;;25.86;61.06
64908;BME280;51412;52.236;5.188;2022-08-18T10:48:26;101403.66;;;25.79;60.98
64908;BME280;51412;52.236;5.188;2022-08-18T10:51:01;101406.97;;;25.83;60.17
64908;BME280;51412;52.236;5.188;2022-08-18T10:53:34;101411.06;;;25.88;59.63
64908;BME280;51412;52.236;5.188;2022-08-18T10:56:08;101414.09;;;25.90;60.17
64908;BME280;51412;52.236;5.188;2022-08-18T10:58:43;101408.03;;;25.86;60.68
64908;BME280;51412;52.236;5.188;2022-08-18T11:01:23;101413.31;;;26.08;60.36
64908;BME280;51412;52.236;5.188;2022-08-18T11:04:05;101413.25;;;26.36;60.02
64908;BME280;51412;52.236;5.188;2022-08-18T11:06:38;101413.50;;;26.47;57.48
64908;BME280;51412;52.236;5.188;2022-08-18T11:09:09;101417.91;;;26.45;58.50
64908;BME280;51412;52.236;5.188;2022-08-18T11:11:38;101415.97;;;26.36;59.73
64908;BME280;51412;52.236;5.188;2022-08-18T11:14:16;101412.50;;;26.26;59.53
64908;BME280;51412;52.236;5.188;2022-08-18T11:16:52;101407.84;;;26.17;59.34
64908;BME280;51412;52.236;5.188;2022-08-18T11:19:21;101397.09;;;26.23;59.22
64908;BME280;51412;52.236;5.188;2022-08-18T11:21:49;101408.72;;;26.33;58.69
64908;BME280;51412;52.236;5.188;2022-08-18T11:24:20;101408.72;;;26.23;58.82
64908;BME280;51412;52.236;5.188;2022-08-18T11:26:50;101404.53;;;26.13;58.74
64908;BME280;51412;52.236;5.188;2022-08-18T11:29:29;101408.91;;;26.01;59.48
64908;BME280;51412;52.236;5.188;2022-08-18T11:31:58;101399.41;;;25.87;60.01
64908;BME280;51412;52.236;5.188;2022-08-18T11:34:30;101401.22;;;25.81;60.85
64908;BME280;51412;52.236;5.188;2022-08-18T11:36:59;101396.09;;;25.74;60.97
64908;BME280;51412;52.236;5.188;2022-08-18T11:39:28;101398.69;;;25.68;61.36
64908;BME280;51412;52.236;5.188;2022-08-18T11:41:56;101403.97;;;25.63;61.14
64908;BME280;51412;52.236;5.188;2022-08-18T11:44:28;101394.28;;;25.62;61.81
64908;BME280;51412;52.236;5.188;2022-08-18T11:47:07;101396.69;;;25.60;61.49
64908;BME280;51412;52.236;5.188;2022-08-18T11:49:35;101395.97;;;25.59;61.29
64908;BME280;51412;52.236;5.188;2022-08-18T11:52:14;101394.91;;;25.66;61.33
64908;BME280;51412;52.236;5.188;2022-08-18T11:54:47;101397.91;;;25.68;61.06
64908;BME280;51412;52.236;5.188;2022-08-18T11:57:30;101399.44;;;25.69;60.68
64908;BME280;51412;52.236;5.188;2022-08-18T12:03:04;101385.34;;;25.70;61.41
64908;BME280;51412;52.236;5.188;2022-08-18T12:05:41;101382.03;;;25.76;61.62
64908;BME280;51412;52.236;5.188;2022-08-18T12:08:16;101385.06;;;25.78;61.52
64908;BME280;51412;52.236;5.188;2022-08-18T12:10:46;101375.38;;;25.86;61.69
64908;BME280;51412;52.236;5.188;2022-08-18T12:13:21;101373.25;;;25.90;61.59
64908;BME280;51412;52.236;5.188;2022-08-18T12:16:06;101382.16;;;25.91;61.54
64908;BME280;51412;52.236;5.188;2022-08-18T12:18:33;101378.22;;;25.92;61.36
64908;BME280;51412;52.236;5.188;2022-08-18T12:21:00;101368.25;;;25.88;61.42
64908;BME280;51412;52.236;5.188;2022-08-18T12:23:27;101372.66;;;25.86;61.74
64908;BME280;51412;52.236;5.188;2022-08-18T12:25:55;101364.00;;;25.87;62.22
64908;BME280;51412;52.236;5.188;2022-08-18T12:28:22;101357.06;;;25.86;61.95
64908;BME280;51412;52.236;5.188;2022-08-18T12:30:51;101360.38;;;25.91;61.59
64908;BME280;51412;52.236;5.188;2022-08-18T12:33:17;101358.69;;;25.93;61.10
64908;BME280;51412;52.236;5.188;2022-08-18T12:35:44;101359.91;;;25.92;61.09
64908;BME280;51412;52.236;5.188;2022-08-18T12:38:11;101379.59;;;25.87;61.28
64908;BME280;51412;52.236;5.188;2022-08-18T12:40:38;101380.81;;;25.86;61.69
64908;BME280;51412;52.236;5.188;2022-08-18T12:43:06;101369.91;;;25.86;61.32
64908;BME280;51412;52.236;5.188;2022-08-18T12:45:33;101360.69;;;25.93;61.25
64908;BME280;51412;52.236;5.188;2022-08-18T12:47:59;101356.72;;;25.94;61.63
64908;BME280;51412;52.236;5.188;2022-08-18T12:50:26;101365.81;;;26.00;60.88
64908;BME280;51412;52.236;5.188;2022-08-18T12:52:53;101364.75;;;26.07;60.47
64908;BME280;51412;52.236;5.188;2022-08-18T12:55:19;101368.06;;;26.11;60.27
64908;BME280;51412;52.236;5.188;2022-08-18T12:57:46;101367.00;;;26.17;60.55
64908;BME280;51412;52.236;5.188;2022-08-18T13:00:15;101362.41;;;26.23;60.40
64908;BME280;51412;52.236;5.188;2022-08-18T13:02:42;101363.19;;;26.24;60.24
64908;BME280;51412;52.236;5.188;2022-08-18T13:05:08;101370.91;;;26.26;60.32
64908;BME280;51412;52.236;5.188;2022-08-18T13:07:35;101366.19;;;26.26;60.48
64908;BME280;51412;52.236;5.188;2022-08-18T13:10:03;101373.00;;;26.31;59.99
64908;BME280;51412;52.236;5.188;2022-08-18T13:12:29;101371.34;;;26.24;59.95
64908;BME280;51412;52.236;5.188;2022-08-18T13:14:56;101375.00;;;26.21;59.96
64908;BME280;51412;52.236;5.188;2022-08-18T13:17:24;101368.97;;;26.17;60.29
64908;BME280;51412;52.236;5.188;2022-08-18T13:19:50;101369.59;;;26.12;60.31
64908;BME280;51412;52.236;5.188;2022-08-18T13:22:17;101363.53;;;26.08;60.95
64908;BME280;51412;52.236;5.188;2022-08-18T13:24:44;101366.09;;;26.02;60.53
64908;BME280;51412;52.236;5.188;2022-08-18T13:27:11;101364.47;;;25.95;60.88
64908;BME280;51412;52.236;5.188;2022-08-18T13:29:38;101363.84;;;25.91;60.49